createdAt,value
2023-12-11T00:00:16.547Z,24.88
2023-12-11T00:01:19.230Z,25.55
2023-12-11T00:02:22.028Z,23.97
2023-12-11T00:03:24.721Z,23.93
2023-12-11T00:04:27.394Z,23.27
2023-12-11T00:05:30.020Z,23.92
2023-12-11T00:06:32.681Z,23.15
2023-12-11T00:07:35.272Z,23.67
2023-12-11T00:08:37.897Z,24.28
2023-12-11T00:09:40.542Z,22.83
2023-12-11T00:10:43.200Z,23.67
2023-12-11T00:11:45.791Z,23.87
2023-12-11T00:12:48.421Z,23.55
2023-12-11T00:13:51.311Z,23.60
2023-12-11T00:14:55.383Z,23.25
2023-12-11T00:15:59.122Z,22.98
2023-12-11T00:17:01.787Z,23.53
2023-12-11T00:18:04.460Z,23.47
2023-12-11T00:19:07.241Z,23.28
2023-12-11T00:20:10.589Z,23.18
2023-12-11T00:21:13.285Z,23.03
2023-12-11T00:22:15.918Z,22.20
2023-12-11T00:23:18.516Z,24.30
2023-12-11T00:24:21.131Z,23.20
2023-12-11T00:25:23.766Z,23.05
2023-12-11T00:26:26.390Z,23.12
2023-12-11T00:27:29.592Z,22.73
2023-12-11T00:28:32.453Z,23.15
2023-12-11T00:29:35.062Z,22.45
2023-12-11T00:30:37.683Z,22.17
2023-12-11T00:31:40.474Z,22.77
2023-12-11T00:32:43.092Z,22.10
2023-12-11T00:33:45.942Z,22.68
2023-12-11T00:34:48.706Z,21.73
2023-12-11T00:35:51.660Z,21.83
2023-12-11T00:36:54.347Z,22.87
2023-12-11T00:37:56.987Z,21.72
2023-12-11T00:38:59.614Z,21.50
2023-12-11T00:40:02.303Z,21.75
2023-12-11T00:41:05.122Z,22.23
2023-12-11T00:42:07.805Z,23.18
2023-12-11T00:43:10.477Z,22.62
2023-12-11T00:44:13.163Z,23.73
2023-12-11T00:45:15.763Z,25.52
2023-12-11T00:46:25.299Z,24.87
2023-12-11T00:47:28.381Z,25.60
2023-12-11T00:48:31.355Z,26.52
2023-12-11T00:49:34.155Z,26.85
2023-12-11T00:50:36.856Z,26.55
2023-12-11T00:51:39.503Z,26.27
2023-12-11T00:52:42.197Z,26.60
2023-12-11T00:53:46.026Z,26.17
2023-12-11T00:54:48.656Z,26.07
2023-12-11T00:55:51.324Z,25.02
2023-12-11T00:56:53.956Z,24.52
2023-12-11T00:57:56.648Z,25.15
2023-12-11T00:58:59.248Z,24.27
2023-12-11T01:00:01.843Z,25.48
2023-12-11T01:01:04.970Z,25.40
2023-12-11T01:02:07.638Z,25.48
2023-12-11T01:03:10.313Z,25.58
2023-12-11T01:04:13.854Z,25.97
2023-12-11T01:05:16.614Z,24.42
2023-12-11T01:06:19.240Z,24.55
2023-12-11T01:07:21.819Z,26.28
2023-12-11T01:08:28.895Z,26.07
2023-12-11T01:09:31.545Z,25.95
2023-12-11T01:10:34.138Z,26.18
2023-12-11T01:11:36.799Z,25.02
2023-12-11T01:12:39.472Z,24.78
2023-12-11T01:13:42.247Z,25.80
2023-12-11T01:14:44.824Z,25.22
2023-12-11T01:15:47.423Z,24.37
2023-12-11T01:16:51.051Z,24.87
2023-12-11T01:17:53.904Z,24.90
2023-12-11T01:18:56.794Z,24.33
2023-12-11T01:19:59.549Z,23.55
2023-12-11T01:21:02.208Z,23.00
2023-12-11T01:22:04.884Z,22.32
2023-12-11T01:23:07.474Z,22.67
2023-12-11T01:24:10.096Z,22.58
2023-12-11T01:25:12.816Z,21.77
2023-12-11T01:26:15.447Z,22.28
2023-12-11T01:27:18.093Z,22.45
2023-12-11T01:28:20.693Z,22.68
2023-12-11T01:29:23.356Z,22.15
2023-12-11T01:30:25.968Z,22.23
2023-12-11T01:31:28.552Z,22.12
2023-12-11T01:32:31.163Z,22.43
2023-12-11T01:33:34.075Z,22.40
2023-12-11T01:34:36.905Z,22.55
2023-12-11T01:35:39.582Z,21.90
2023-12-11T01:36:44.065Z,21.23
2023-12-11T01:37:46.700Z,21.40
2023-12-11T01:38:51.348Z,21.37
2023-12-11T01:39:54.036Z,20.78
2023-12-11T01:40:56.793Z,21.07
2023-12-11T01:41:59.597Z,21.05
2023-12-11T01:43:19.271Z,21.73
2023-12-11T01:44:22.574Z,21.45
2023-12-11T01:45:25.234Z,21.08
2023-12-11T01:46:27.866Z,20.90
2023-12-11T01:47:30.725Z,22.32
2023-12-11T01:48:34.004Z,21.38
2023-12-11T01:49:37.492Z,20.53
2023-12-11T01:50:40.325Z,21.90
2023-12-11T01:51:43.492Z,22.27
2023-12-11T01:52:46.086Z,21.88
2023-12-11T01:53:50.414Z,21.78
2023-12-11T01:54:53.710Z,21.80
2023-12-11T01:55:56.798Z,21.27
2023-12-11T01:56:59.393Z,21.28
2023-12-11T01:58:02.990Z,20.88
2023-12-11T01:59:05.753Z,21.10
2023-12-11T02:01:26.934Z,21.93
2023-12-11T02:02:31.175Z,21.30
2023-12-11T02:03:33.935Z,21.35
2023-12-11T02:04:36.812Z,21.23
2023-12-11T02:05:39.840Z,21.53
2023-12-11T02:06:42.768Z,22.17
2023-12-11T02:07:45.580Z,22.42
2023-12-11T02:08:48.217Z,22.47
2023-12-11T02:09:50.827Z,22.63
2023-12-11T02:10:53.466Z,22.77
2023-12-11T02:11:59.036Z,22.17
2023-12-11T02:13:01.742Z,22.83
2023-12-11T02:14:04.873Z,22.62
2023-12-11T02:15:07.946Z,22.58
2023-12-11T02:16:17.317Z,22.30
2023-12-11T02:17:20.129Z,22.37
2023-12-11T02:18:23.437Z,22.90
2023-12-11T02:19:26.262Z,22.23
2023-12-11T02:20:28.865Z,22.12
2023-12-11T02:21:31.547Z,23.02
2023-12-11T02:22:34.231Z,22.37
2023-12-11T02:23:56.905Z,22.88
2023-12-11T02:25:03.676Z,23.88
2023-12-11T02:26:12.765Z,22.47
2023-12-11T02:27:15.701Z,23.92
2023-12-11T02:28:18.670Z,23.42
2023-12-11T02:29:21.439Z,24.53
2023-12-11T02:30:24.034Z,24.58
2023-12-11T02:31:26.773Z,25.10
2023-12-11T02:32:29.426Z,25.52
2023-12-11T02:33:32.285Z,25.47
2023-12-11T02:34:34.992Z,26.32
2023-12-11T02:35:42.341Z,25.78
2023-12-11T02:36:45.025Z,25.22
2023-12-11T02:37:47.735Z,25.83
2023-12-11T02:38:50.406Z,26.32
2023-12-11T02:39:53.086Z,25.33
2023-12-11T02:40:55.701Z,25.33
2023-12-11T02:41:58.268Z,25.52
2023-12-11T02:43:00.939Z,26.28
2023-12-11T02:44:03.552Z,25.37
2023-12-11T02:45:06.759Z,26.52
2023-12-11T02:46:09.493Z,26.18
2023-12-11T02:47:12.126Z,26.87
2023-12-11T02:48:15.247Z,25.25
2023-12-11T02:49:18.090Z,25.97
2023-12-11T02:50:20.731Z,27.12
2023-12-11T02:51:23.375Z,26.02
2023-12-11T02:52:26.016Z,26.75
2023-12-11T02:53:28.621Z,24.67
2023-12-11T02:54:31.294Z,25.32
2023-12-11T02:55:33.968Z,25.67
2023-12-11T02:56:40.186Z,25.83
2023-12-11T02:57:42.790Z,26.03
2023-12-11T02:58:45.679Z,25.52
2023-12-11T02:59:48.396Z,25.65
2023-12-11T03:00:51.098Z,25.80
2023-12-11T03:01:53.931Z,25.77
2023-12-11T03:02:56.954Z,26.22
2023-12-11T03:03:59.727Z,25.68
2023-12-11T03:05:02.536Z,27.27
2023-12-11T03:06:05.891Z,28.03
2023-12-11T03:07:08.543Z,27.13
2023-12-11T03:08:11.165Z,26.27
2023-12-11T03:09:13.791Z,25.98
2023-12-11T03:10:16.910Z,26.52
2023-12-11T03:11:19.479Z,26.60
2023-12-11T03:12:22.097Z,25.95
2023-12-11T03:13:24.732Z,26.42
2023-12-11T03:14:27.353Z,26.13
2023-12-11T03:15:31.884Z,27.20
2023-12-11T03:16:34.573Z,26.83
2023-12-11T03:17:37.361Z,26.55
2023-12-11T03:18:41.317Z,26.70
2023-12-11T03:19:44.090Z,26.95
2023-12-11T03:20:46.783Z,26.88
2023-12-11T03:21:49.439Z,25.77
2023-12-11T03:22:52.110Z,26.75
2023-12-11T03:23:54.720Z,25.88
2023-12-11T03:24:57.438Z,25.18
2023-12-11T03:26:00.098Z,26.05
2023-12-11T03:27:02.712Z,25.32
2023-12-11T03:28:05.351Z,25.03
2023-12-11T03:29:07.989Z,25.75
2023-12-11T03:30:10.833Z,24.82
2023-12-11T03:31:13.497Z,24.65
2023-12-11T03:32:16.179Z,24.73
2023-12-11T03:33:18.853Z,24.78
2023-12-11T03:34:21.563Z,24.52
2023-12-11T03:35:24.266Z,24.68
2023-12-11T03:36:26.871Z,24.03
2023-12-11T03:37:29.746Z,23.98
2023-12-11T03:38:32.494Z,24.50
2023-12-11T03:39:35.143Z,24.63
2023-12-11T03:40:37.767Z,24.57
2023-12-11T03:41:40.360Z,24.88
2023-12-11T03:42:44.720Z,25.65
2023-12-11T03:43:48.716Z,26.37
2023-12-11T03:44:51.349Z,25.97
2023-12-11T03:45:57.308Z,26.40
2023-12-11T03:47:00.045Z,27.82
2023-12-11T03:48:02.945Z,27.92
2023-12-11T03:49:05.659Z,27.22
2023-12-11T03:50:08.779Z,26.15
2023-12-11T03:51:11.358Z,24.90
2023-12-11T03:52:13.987Z,23.70
2023-12-11T03:53:16.840Z,22.22
2023-12-11T03:54:19.620Z,22.85
2023-12-11T03:55:22.470Z,22.08
2023-12-11T03:56:25.583Z,21.40
2023-12-11T03:57:28.407Z,21.25
2023-12-11T03:58:31.195Z,21.63
2023-12-11T03:59:34.623Z,21.72
2023-12-11T04:00:37.529Z,21.52
2023-12-11T04:01:40.448Z,21.52
2023-12-11T04:02:43.119Z,21.65
2023-12-11T04:03:45.823Z,20.60
2023-12-11T04:04:48.569Z,20.67
2023-12-11T04:05:51.273Z,20.13
2023-12-11T04:06:53.976Z,21.27
2023-12-11T04:07:56.947Z,20.73
2023-12-11T04:08:59.639Z,21.03
2023-12-11T04:10:02.459Z,21.73
2023-12-11T04:11:05.218Z,20.87
2023-12-11T04:12:07.929Z,19.92
2023-12-11T04:13:10.565Z,20.87
2023-12-11T04:14:13.490Z,20.90
2023-12-11T04:15:16.124Z,21.72
2023-12-11T04:16:18.685Z,20.67
2023-12-11T04:17:21.383Z,20.78
2023-12-11T04:18:24.052Z,20.43
2023-12-11T04:19:26.762Z,20.35
2023-12-11T04:20:29.486Z,19.23
2023-12-11T04:21:32.929Z,20.78
2023-12-11T04:22:35.573Z,20.75
2023-12-11T04:23:38.196Z,20.92
2023-12-11T04:24:40.837Z,20.65
2023-12-11T04:25:43.480Z,20.50
2023-12-11T04:26:46.121Z,20.50
2023-12-11T04:27:48.746Z,20.35
2023-12-11T04:28:51.370Z,20.60
2023-12-11T04:29:53.978Z,21.13
2023-12-11T04:30:56.621Z,19.53
2023-12-11T04:31:59.219Z,19.58
2023-12-11T04:33:02.045Z,19.72
2023-12-11T04:34:04.899Z,20.02
2023-12-11T04:35:07.722Z,19.53
2023-12-11T04:36:10.362Z,18.97
2023-12-11T04:37:13.299Z,18.23
2023-12-11T04:38:16.004Z,18.50
2023-12-11T04:39:18.629Z,18.08
2023-12-11T04:40:21.231Z,19.30
2023-12-11T04:41:23.821Z,20.95
2023-12-11T04:42:26.404Z,20.40
2023-12-11T04:43:31.776Z,20.00
2023-12-11T04:44:34.880Z,20.77
2023-12-11T04:45:37.511Z,20.33
2023-12-11T04:46:40.189Z,20.55
2023-12-11T04:47:42.861Z,20.77
2023-12-11T04:48:45.660Z,20.32
2023-12-11T04:49:48.530Z,20.73
2023-12-11T04:50:51.254Z,20.40
2023-12-11T04:51:53.952Z,20.15
2023-12-11T04:52:56.612Z,20.25
2023-12-11T04:54:00.079Z,20.53
2023-12-11T04:55:02.888Z,21.98
2023-12-11T04:56:09.238Z,22.35
2023-12-11T04:57:11.897Z,23.50
2023-12-11T04:58:14.738Z,22.57
2023-12-11T04:59:17.362Z,23.00
2023-12-11T05:00:20.121Z,24.38
2023-12-11T05:01:23.466Z,23.73
2023-12-11T05:02:26.122Z,22.83
2023-12-11T05:03:28.736Z,22.35
2023-12-11T05:04:31.369Z,21.38
2023-12-11T05:05:35.930Z,20.87
2023-12-11T05:06:38.627Z,20.72
2023-12-11T05:07:42.011Z,21.03
2023-12-11T05:08:44.640Z,21.23
2023-12-11T05:09:47.388Z,20.33
2023-12-11T05:10:50.089Z,21.28
2023-12-11T05:11:52.725Z,20.17
2023-12-11T05:12:55.388Z,20.13
2023-12-11T05:13:58.033Z,20.58
2023-12-11T05:15:03.421Z,20.42
2023-12-11T05:16:06.543Z,19.05
2023-12-11T05:17:09.254Z,20.08
2023-12-11T05:18:12.024Z,20.33
2023-12-11T05:19:14.803Z,22.25
2023-12-11T05:20:19.545Z,21.05
2023-12-11T05:21:23.343Z,20.17
2023-12-11T05:22:25.991Z,19.87
2023-12-11T05:23:28.618Z,19.88
2023-12-11T05:24:31.266Z,19.40
2023-12-11T05:25:34.143Z,19.05
2023-12-11T05:26:36.782Z,18.37
2023-12-11T05:27:39.393Z,19.08
2023-12-11T05:28:41.987Z,20.40
2023-12-11T05:29:44.563Z,20.67
2023-12-11T05:30:47.213Z,20.25
2023-12-11T05:31:50.034Z,20.03
2023-12-11T05:32:52.679Z,19.88
2023-12-11T05:33:55.390Z,19.50
2023-12-11T05:34:58.103Z,19.83
2023-12-11T05:36:00.673Z,19.60
2023-12-11T05:37:03.353Z,19.98
2023-12-11T05:38:06.100Z,20.67
2023-12-11T05:39:08.714Z,21.83
2023-12-11T05:40:21.984Z,21.62
2023-12-11T05:41:27.251Z,20.70
2023-12-11T05:42:29.884Z,21.17
2023-12-11T05:43:32.471Z,21.15
2023-12-11T05:44:35.089Z,21.93
2023-12-11T05:45:37.755Z,20.93
2023-12-11T05:46:40.394Z,20.52
2023-12-11T05:47:43.228Z,20.48
2023-12-11T05:48:45.989Z,19.72
2023-12-11T05:49:48.941Z,20.02
2023-12-11T05:50:51.580Z,20.87
2023-12-11T05:51:54.773Z,21.22
2023-12-11T05:52:57.494Z,21.55
2023-12-11T05:54:00.151Z,22.68
2023-12-11T05:55:02.932Z,23.40
2023-12-11T05:56:06.515Z,23.02
2023-12-11T05:57:09.130Z,22.67
2023-12-11T05:58:11.820Z,22.48
2023-12-11T05:59:14.438Z,21.98
2023-12-11T06:00:17.420Z,22.08
2023-12-11T06:01:20.140Z,21.87
2023-12-11T06:02:22.855Z,22.47
2023-12-11T06:03:25.552Z,22.17
2023-12-11T06:04:28.188Z,22.70
2023-12-11T06:05:30.824Z,21.82
2023-12-11T06:06:33.581Z,21.58
2023-12-11T06:07:36.492Z,20.67
2023-12-11T06:08:39.095Z,21.32
2023-12-11T06:09:41.735Z,21.92
2023-12-11T06:10:44.350Z,22.63
2023-12-11T06:11:46.975Z,22.67
2023-12-11T06:12:49.708Z,22.52
2023-12-11T06:13:52.471Z,21.77
2023-12-11T06:14:55.112Z,20.68
2023-12-11T06:15:57.733Z,20.88
2023-12-11T06:17:01.161Z,21.20
2023-12-11T06:18:03.917Z,20.42
2023-12-11T06:19:06.767Z,21.35
2023-12-11T06:20:11.025Z,21.23
2023-12-11T06:21:21.109Z,23.03
2023-12-11T06:22:23.753Z,21.88
2023-12-11T06:23:26.397Z,21.53
2023-12-11T06:24:29.597Z,21.95
2023-12-11T06:25:32.206Z,21.17
2023-12-11T06:26:35.705Z,20.50
2023-12-11T06:27:38.404Z,20.55
2023-12-11T06:28:41.081Z,20.83
2023-12-11T06:29:43.858Z,21.08
2023-12-11T06:30:46.579Z,20.10
2023-12-11T06:31:49.205Z,21.02
2023-12-11T06:32:54.054Z,20.33
2023-12-11T06:33:57.805Z,20.92
2023-12-11T06:35:01.017Z,25.22
2023-12-11T06:36:03.793Z,28.47
2023-12-11T06:37:07.264Z,26.97
2023-12-11T06:38:10.607Z,24.72
2023-12-11T06:39:13.193Z,24.62
2023-12-11T06:40:15.902Z,24.27
2023-12-11T06:41:20.203Z,22.28
2023-12-11T06:42:25.277Z,21.38
2023-12-11T06:43:27.867Z,21.82
2023-12-11T06:44:30.669Z,20.12
2023-12-11T06:45:36.352Z,20.45
2023-12-11T06:46:40.792Z,20.43
2023-12-11T06:47:47.396Z,20.95
2023-12-11T06:48:54.176Z,21.70
2023-12-11T06:49:58.178Z,21.83
2023-12-11T06:52:34.730Z,21.50
2023-12-11T06:55:14.101Z,25.83
2023-12-11T06:56:20.391Z,23.17
2023-12-11T06:57:23.039Z,21.12
2023-12-11T06:58:30.154Z,20.60
2023-12-11T06:59:34.069Z,21.05
2023-12-11T07:00:37.538Z,21.13
2023-12-11T07:01:41.282Z,22.20
2023-12-11T07:02:44.351Z,39.72
2023-12-11T07:03:49.687Z,60.62
2023-12-11T07:04:52.649Z,47.38
2023-12-11T07:05:55.588Z,36.08
2023-12-11T07:07:01.264Z,33.13
2023-12-11T07:08:06.751Z,34.98
2023-12-11T07:09:17.699Z,24.85
2023-12-11T07:10:41.653Z,21.15
2023-12-11T07:12:05.519Z,20.32
2023-12-11T07:13:08.276Z,20.03
2023-12-11T07:14:11.030Z,20.37
2023-12-11T07:15:13.933Z,20.92
2023-12-11T07:16:17.032Z,20.72
2023-12-11T07:17:19.751Z,21.70
2023-12-11T07:18:23.433Z,23.28
2023-12-11T07:19:26.355Z,23.42
2023-12-11T07:20:28.997Z,23.43
2023-12-11T07:21:31.885Z,22.88
2023-12-11T07:22:36.575Z,21.88
2023-12-11T07:23:40.000Z,20.90
2023-12-11T07:24:42.719Z,22.13
2023-12-11T07:25:45.428Z,23.82
2023-12-11T07:26:48.107Z,21.50
2023-12-11T07:27:50.759Z,18.95
2023-12-11T07:28:54.098Z,19.08
2023-12-11T07:29:56.701Z,18.92
2023-12-11T07:31:00.178Z,19.05
2023-12-11T07:32:02.817Z,19.40
2023-12-11T07:33:05.650Z,20.38
2023-12-11T07:34:08.860Z,20.87
2023-12-11T07:35:12.922Z,20.13
2023-12-11T07:36:16.466Z,20.27
2023-12-11T07:37:19.218Z,21.47
2023-12-11T07:38:21.982Z,23.43
2023-12-11T07:39:24.731Z,39.70
2023-12-11T07:40:27.480Z,36.68
2023-12-11T07:41:30.143Z,27.27
2023-12-11T07:42:32.751Z,26.10
2023-12-11T07:43:35.415Z,24.82
2023-12-11T07:44:38.379Z,24.53
2023-12-11T07:45:42.016Z,22.92
2023-12-11T07:46:47.476Z,22.32
2023-12-11T07:47:53.122Z,23.23
2023-12-11T07:48:56.365Z,29.65
2023-12-11T07:50:02.575Z,29.47
2023-12-11T07:51:07.610Z,27.08
2023-12-11T07:52:11.779Z,27.08
2023-12-11T07:53:14.583Z,26.37
2023-12-11T07:54:17.944Z,25.42
2023-12-11T07:55:50.662Z,21.13
2023-12-11T07:56:56.777Z,21.10
2023-12-11T07:58:01.106Z,21.28
2023-12-11T07:59:08.546Z,20.80
2023-12-11T08:00:32.511Z,20.85
2023-12-11T08:01:35.507Z,20.60
2023-12-11T08:02:38.306Z,23.18
2023-12-11T08:03:41.408Z,28.28
2023-12-11T08:04:44.150Z,34.88
2023-12-11T08:05:46.902Z,35.48
2023-12-11T08:06:51.547Z,36.48
2023-12-11T08:07:54.217Z,38.02
2023-12-11T08:08:56.906Z,39.30
2023-12-11T08:09:59.560Z,38.00
2023-12-11T08:11:02.310Z,36.73
2023-12-11T08:12:05.505Z,37.03
2023-12-11T08:13:08.113Z,34.55
2023-12-11T08:14:10.778Z,27.32
2023-12-11T08:15:13.417Z,26.27
2023-12-11T08:16:16.631Z,24.70
2023-12-11T08:17:19.279Z,22.93
2023-12-11T08:18:22.020Z,22.77
2023-12-11T08:19:24.918Z,23.63
2023-12-11T08:20:28.810Z,32.07
2023-12-11T08:21:32.181Z,41.38
2023-12-11T08:22:34.780Z,47.25
2023-12-11T08:23:39.836Z,48.22
2023-12-11T08:24:42.615Z,41.32
2023-12-11T08:25:45.260Z,37.52
2023-12-11T08:26:48.325Z,31.35
2023-12-11T08:27:51.025Z,29.83
2023-12-11T08:28:53.755Z,30.55
2023-12-11T08:29:56.386Z,33.50
2023-12-11T08:30:59.104Z,34.50
2023-12-11T08:32:05.223Z,33.52
2023-12-11T08:33:09.166Z,33.27
2023-12-11T08:34:11.870Z,33.27
2023-12-11T08:35:14.572Z,33.38
2023-12-11T08:36:17.332Z,33.58
2023-12-11T08:37:20.219Z,33.63
2023-12-11T08:38:24.846Z,32.60
2023-12-11T08:39:27.491Z,32.55
2023-12-11T08:40:30.323Z,33.80
2023-12-11T08:41:32.928Z,32.27
2023-12-11T08:42:40.693Z,27.93
2023-12-11T08:43:44.577Z,25.70
2023-12-11T08:44:47.238Z,22.22
2023-12-11T08:45:50.466Z,22.27
2023-12-11T08:46:53.589Z,21.72
2023-12-11T08:47:56.555Z,22.25
2023-12-11T08:49:00.410Z,22.97
2023-12-11T08:50:05.432Z,24.97
2023-12-11T08:51:08.493Z,23.72
2023-12-11T08:52:13.257Z,23.02
2023-12-11T08:53:15.992Z,21.53
2023-12-11T08:54:19.964Z,21.18
2023-12-11T08:55:22.857Z,20.57
2023-12-11T08:56:28.857Z,21.48
2023-12-11T08:57:32.249Z,21.57
2023-12-11T08:58:35.110Z,22.13
2023-12-11T08:59:39.083Z,21.82
2023-12-11T09:00:41.903Z,21.82
2023-12-11T09:01:44.633Z,21.47
2023-12-11T09:02:47.275Z,20.93
2023-12-11T09:03:50.206Z,19.85
2023-12-11T09:04:53.062Z,20.20
2023-12-11T09:05:57.556Z,20.42
2023-12-11T09:07:00.712Z,20.30
2023-12-11T09:08:04.049Z,19.93
2023-12-11T09:09:07.169Z,20.07
2023-12-11T09:10:10.969Z,19.63
2023-12-11T09:11:13.611Z,19.00
2023-12-11T09:12:27.763Z,19.05
2023-12-11T09:13:36.312Z,17.68
2023-12-11T09:14:38.955Z,17.87
2023-12-11T09:15:41.635Z,17.35
2023-12-11T09:16:44.295Z,17.52
2023-12-11T09:17:47.134Z,16.73
2023-12-11T09:18:50.056Z,17.28
2023-12-11T09:19:55.771Z,17.37
2023-12-11T09:20:59.348Z,17.43
2023-12-11T09:22:02.260Z,17.35
2023-12-11T09:23:05.022Z,17.68
2023-12-11T09:24:07.816Z,17.60
2023-12-11T09:25:11.464Z,17.60
2023-12-11T09:26:14.235Z,17.93
2023-12-11T09:27:16.952Z,17.62
2023-12-11T09:28:19.742Z,17.95
2023-12-11T09:29:22.499Z,18.18
2023-12-11T09:30:25.215Z,18.52
2023-12-11T09:31:27.837Z,18.03
2023-12-11T09:32:30.555Z,17.70
2023-12-11T09:33:33.366Z,17.25
2023-12-11T09:34:36.239Z,17.80
2023-12-11T09:35:39.072Z,18.05
2023-12-11T09:36:41.948Z,17.98
2023-12-11T09:37:47.031Z,17.70
2023-12-11T09:38:49.682Z,17.90
2023-12-11T09:39:52.362Z,18.48
2023-12-11T09:40:55.553Z,18.97
2023-12-11T09:42:06.390Z,17.57
2023-12-11T09:43:11.281Z,18.55
2023-12-11T09:44:17.367Z,18.23
2023-12-11T09:45:25.219Z,19.08
2023-12-11T09:46:29.881Z,19.72
2023-12-11T09:47:39.399Z,19.60
2023-12-11T09:48:44.884Z,20.52
2023-12-11T09:49:49.470Z,20.10
2023-12-11T09:54:48.647Z,20.40
2023-12-11T09:55:51.894Z,20.72
2023-12-11T09:56:55.136Z,20.47
2023-12-11T09:57:58.300Z,20.98
2023-12-11T09:59:01.370Z,20.82
2023-12-11T10:00:07.762Z,21.43
2023-12-11T10:01:13.368Z,21.15
2023-12-11T10:02:17.159Z,22.23
2023-12-11T10:03:20.074Z,23.30
2023-12-11T10:04:22.952Z,22.08
2023-12-11T10:05:26.829Z,20.73
2023-12-11T10:06:29.870Z,20.95
2023-12-11T10:07:35.957Z,21.55
2023-12-11T10:08:45.500Z,22.37
2023-12-11T10:09:48.137Z,20.58
2023-12-11T10:10:50.805Z,20.52
2023-12-11T10:12:04.660Z,20.70
2023-12-11T10:13:07.522Z,21.32
2023-12-11T10:14:13.871Z,20.25
2023-12-11T10:15:27.719Z,20.92
2023-12-11T10:16:34.890Z,21.03
2023-12-11T10:17:37.530Z,20.78
2023-12-11T10:18:50.491Z,20.60
2023-12-11T10:19:53.564Z,21.23
2023-12-11T10:20:58.829Z,20.98
2023-12-11T10:22:04.932Z,21.23
2023-12-11T10:23:19.717Z,20.57
2023-12-11T10:24:23.776Z,20.35
2023-12-11T10:25:27.871Z,20.78
2023-12-11T10:26:34.952Z,20.07
2023-12-11T10:27:37.678Z,19.63
2023-12-11T10:28:41.634Z,20.02
2023-12-11T10:29:44.285Z,19.02
2023-12-11T10:30:52.193Z,19.37
2023-12-11T10:32:04.273Z,19.90
2023-12-11T10:33:08.468Z,20.23
2023-12-11T10:34:13.718Z,20.40
2023-12-11T10:35:26.778Z,20.53
2023-12-11T10:36:44.066Z,20.47
2023-12-11T10:40:08.286Z,19.73
2023-12-11T10:41:32.758Z,20.27
2023-12-11T10:46:56.901Z,20.23
2023-12-11T10:48:26.608Z,19.87
2023-12-11T10:49:30.950Z,18.93
2023-12-11T10:50:35.229Z,19.23
2023-12-11T10:51:38.512Z,18.92
2023-12-11T10:52:43.777Z,18.38
2023-12-11T10:53:47.248Z,18.43
2023-12-11T10:54:49.982Z,17.83
2023-12-11T10:55:54.489Z,19.58
2023-12-11T10:56:58.350Z,18.87
2023-12-11T10:58:04.970Z,18.78
2023-12-11T10:59:07.947Z,18.82
2023-12-11T11:00:15.264Z,18.33
2023-12-11T11:01:18.625Z,19.02
2023-12-11T11:02:24.122Z,19.37
2023-12-11T11:03:27.083Z,18.50
2023-12-11T11:04:34.480Z,18.18
2023-12-11T11:05:37.786Z,18.52
2023-12-11T11:07:07.877Z,18.13
2023-12-11T11:08:13.461Z,17.80
2023-12-11T11:09:25.618Z,19.15
2023-12-11T11:10:51.552Z,18.22
2023-12-11T11:12:03.724Z,18.22
2023-12-11T11:13:15.941Z,18.40
2023-12-11T11:14:43.512Z,16.72
2023-12-11T11:15:52.644Z,17.75
2023-12-11T11:17:00.349Z,18.05
2023-12-11T11:18:07.309Z,18.07
2023-12-11T11:19:10.443Z,18.18
2023-12-11T11:20:16.031Z,18.02
2023-12-11T11:21:18.886Z,17.95
2023-12-11T11:22:31.267Z,17.35
2023-12-11T11:23:47.106Z,18.00
2023-12-11T11:24:49.918Z,18.82
2023-12-11T11:25:55.726Z,17.62
2023-12-11T11:26:59.306Z,18.07
2023-12-11T11:28:04.421Z,17.50
2023-12-11T11:29:22.649Z,16.77
2023-12-11T11:30:48.814Z,16.70
2023-12-11T11:32:17.431Z,17.33
2023-12-11T11:35:00.741Z,17.30
2023-12-11T11:52:16.067Z,16.35
2023-12-11T11:53:20.023Z,16.82
2023-12-11T11:54:26.667Z,17.02
2023-12-11T11:55:29.870Z,17.13
2023-12-11T11:56:32.741Z,17.00
2023-12-11T11:57:37.600Z,15.93
2023-12-11T11:58:40.389Z,16.48
2023-12-11T11:59:46.683Z,16.80
2023-12-11T12:00:50.770Z,18.03
2023-12-11T12:01:55.445Z,17.55
2023-12-11T12:03:04.868Z,16.67
2023-12-11T12:04:07.742Z,15.38
2023-12-11T12:05:12.180Z,15.32
2023-12-11T12:06:18.687Z,15.48
2023-12-11T12:07:21.574Z,15.47
2023-12-11T12:09:41.822Z,15.48
2023-12-11T12:10:44.608Z,15.40
2023-12-11T12:11:47.411Z,15.02
2023-12-11T12:12:57.060Z,15.30
2023-12-11T12:14:01.002Z,15.88
2023-12-11T12:15:06.034Z,15.08
2023-12-11T12:16:08.878Z,16.15
2023-12-11T12:17:12.285Z,16.48
2023-12-11T12:18:15.214Z,15.77
2023-12-11T12:19:18.825Z,15.02
2023-12-11T12:20:22.054Z,15.35
2023-12-11T12:21:32.868Z,15.00
2023-12-11T12:22:38.383Z,16.40
2023-12-11T12:23:46.453Z,16.07
2023-12-11T12:24:51.306Z,15.97
2023-12-11T12:26:23.055Z,15.98
2023-12-11T12:27:36.587Z,14.87
2023-12-11T12:42:12.344Z,15.17
2023-12-11T12:43:54.916Z,15.42
2023-12-11T12:45:35.334Z,15.58
2023-12-11T12:46:43.346Z,15.30
2023-12-11T12:47:49.266Z,15.58
2023-12-11T12:48:52.006Z,14.92
2023-12-11T12:49:54.710Z,15.50
2023-12-11T12:51:13.265Z,15.33
2023-12-11T12:52:28.746Z,15.37
2023-12-11T12:53:31.469Z,15.23
2023-12-11T12:54:55.183Z,15.12
2023-12-11T12:55:57.827Z,15.73
2023-12-11T12:57:00.542Z,15.62
2023-12-11T12:58:03.918Z,15.53
2023-12-11T12:59:06.882Z,15.77
2023-12-11T13:01:12.189Z,15.27
2023-12-11T13:02:18.788Z,14.92
2023-12-11T13:03:26.846Z,15.53
2023-12-11T13:04:29.783Z,15.88
2023-12-11T13:05:43.480Z,15.57
2023-12-11T13:06:50.117Z,15.43
2023-12-11T13:08:00.816Z,15.62
2023-12-11T13:09:04.876Z,16.02
2023-12-11T13:10:13.421Z,15.45
2023-12-11T13:11:16.758Z,15.32
2023-12-11T13:12:20.124Z,16.03
2023-12-11T13:13:28.264Z,15.25
2023-12-11T13:14:31.646Z,16.17
2023-12-11T13:15:34.799Z,17.18
2023-12-11T13:16:38.707Z,16.68
2023-12-11T13:17:41.452Z,17.65
2023-12-11T13:18:44.206Z,17.93
2023-12-11T13:19:47.678Z,16.47
2023-12-11T13:21:01.770Z,16.98
2023-12-11T13:22:09.785Z,16.25
2023-12-11T13:23:50.777Z,15.83
2023-12-11T13:25:20.283Z,16.22
2023-12-11T13:26:25.706Z,14.83
2023-12-11T13:40:58.324Z,18.90
2023-12-11T13:42:01.005Z,19.18
2023-12-11T13:43:03.806Z,18.98
2023-12-11T13:44:06.522Z,19.17
2023-12-11T13:45:09.663Z,17.17
2023-12-11T13:46:12.398Z,16.72
2023-12-11T13:47:15.151Z,15.67
2023-12-11T13:48:17.929Z,15.35
2023-12-11T13:49:20.662Z,15.27
2023-12-11T13:50:23.431Z,15.17
2023-12-11T13:51:26.161Z,14.82
2023-12-11T13:52:28.867Z,15.05
2023-12-11T13:53:31.538Z,14.80
2023-12-11T13:54:34.257Z,14.38
2023-12-11T13:55:36.899Z,14.10
2023-12-11T13:56:39.482Z,14.37
2023-12-11T13:57:42.166Z,13.33
2023-12-11T13:58:44.755Z,14.60
2023-12-11T13:59:47.504Z,14.33
2023-12-11T14:00:50.641Z,14.67
2023-12-11T14:01:53.425Z,14.47
2023-12-11T14:03:01.531Z,13.90
2023-12-11T14:04:07.077Z,14.55
2023-12-11T14:05:10.269Z,14.27
2023-12-11T14:06:15.054Z,14.68
2023-12-11T14:07:18.314Z,14.80
2023-12-11T14:08:23.542Z,15.80
2023-12-11T14:09:27.337Z,14.52
2023-12-11T14:10:31.900Z,14.53
2023-12-11T14:11:34.613Z,14.63
2023-12-11T14:12:40.739Z,15.35
2023-12-11T14:13:44.064Z,19.78
2023-12-11T14:14:47.241Z,18.32
2023-12-11T14:15:49.926Z,24.68
2023-12-11T14:16:52.831Z,32.17
2023-12-11T14:17:55.677Z,32.22
2023-12-11T14:18:58.390Z,30.63
2023-12-11T14:20:01.450Z,32.93
2023-12-11T14:21:05.440Z,32.00
2023-12-11T14:22:08.129Z,28.70
2023-12-11T14:23:10.853Z,27.68
2023-12-11T14:24:13.500Z,27.60
2023-12-11T14:25:16.543Z,27.30
2023-12-11T14:26:19.180Z,25.38
2023-12-11T14:27:24.192Z,23.93
2023-12-11T14:28:27.383Z,23.30
2023-12-11T14:29:30.084Z,24.22
2023-12-11T14:30:39.276Z,23.48
2023-12-11T14:31:41.963Z,23.58
2023-12-11T14:32:44.773Z,23.60
2023-12-11T14:33:47.717Z,24.85
2023-12-11T14:34:50.670Z,24.73
2023-12-11T14:35:53.300Z,24.58
2023-12-11T14:36:55.965Z,25.48
2023-12-11T14:37:58.597Z,26.37
2023-12-11T14:39:01.832Z,25.92
2023-12-11T14:40:04.942Z,26.18
2023-12-11T14:41:08.027Z,26.83
2023-12-11T14:42:11.480Z,27.68
2023-12-11T14:43:14.449Z,29.43
2023-12-11T14:44:17.472Z,32.35
2023-12-11T14:45:20.270Z,34.12
2023-12-11T14:46:22.974Z,41.53
2023-12-11T14:47:26.287Z,46.62
2023-12-11T14:48:29.085Z,46.57
2023-12-11T14:49:31.865Z,43.00
2023-12-11T14:50:34.680Z,42.23